Time;durP1;ratioP1;P1;durP2;ratioP2;P2;SDS_P1;SDS_P2;PMS_P1;PMS_P2;Temp;Humidity;BMP_temperature;BMP_pressure;BME280_temperature;BME280_humidity;BME280_pressure;Samples;Min_cycle;Max_cycle;Signal;HPM_P1;HPM_P2
2021/09/09 00:02:16;;;;;;;14.32;9.70;;;17.50;99.90;;;;;;6685394;88;20174;-78
2021/09/09 00:12:17;;;;;;;15.10;9.25;;;17.50;99.90;;;;;;6685507;88;20963;-78
2021/09/09 00:22:18;;;;;;;14.98;9.77;;;17.50;99.90;;;;;;6685707;89;20184;-77
2021/09/09 00:32:18;;;;;;;14.20;9.75;;;17.30;99.90;;;;;;6682693;88;20184;-77
2021/09/09 00:42:19;;;;;;;15.35;10.45;;;17.30;99.90;;;;;;6686740;88;20279;-77
2021/09/09 00:52:19;;;;;;;15.27;9.88;;;17.10;99.90;;;;;;6679721;88;20324;-77
2021/09/09 01:02:20;;;;;;;15.40;10.07;;;17.00;99.90;;;;;;6680036;88;20194;-77
2021/09/09 01:12:20;;;;;;;17.02;10.05;;;16.90;99.90;;;;;;6676295;88;20186;-78
2021/09/09 01:22:21;;;;;;;14.93;9.75;;;16.90;99.90;;;;;;6688805;88;20295;-77
2021/09/09 01:32:22;;;;;;;16.30;9.90;;;16.90;99.90;;;;;;6680152;89;20247;-77
2021/09/09 01:42:22;;;;;;;15.85;9.93;;;16.90;99.90;;;;;;6677858;89;20238;-77
2021/09/09 01:52:23;;;;;;;17.53;10.37;;;16.90;99.90;;;;;;6678844;88;20254;-77
2021/09/09 02:02:23;;;;;;;13.65;9.80;;;16.80;99.90;;;;;;6683000;88;20709;-78
2021/09/09 02:12:24;;;;;;;17.10;10.25;;;16.80;99.90;;;;;;6679390;88;20238;-78
2021/09/09 02:22:24;;;;;;;15.55;10.23;;;16.80;99.90;;;;;;6684504;88;20195;-78
2021/09/09 02:32:25;;;;;;;15.70;9.70;;;16.70;99.90;;;;;;6681437;89;20171;-77
2021/09/09 02:42:25;;;;;;;14.68;9.85;;;16.70;99.90;;;;;;6680305;88;20214;-78
2021/09/09 02:52:26;;;;;;;14.90;10.17;;;16.60;99.90;;;;;;6685489;88;20217;-77
2021/09/09 03:02:27;;;;;;;15.52;10.52;;;16.60;99.90;;;;;;6684286;88;20697;-77
2021/09/09 03:12:27;;;;;;;15.52;10.52;;;16.40;99.90;;;;;;6676602;89;20208;-78
2021/09/09 03:22:28;;;;;;;14.82;10.13;;;16.40;99.90;;;;;;6676756;88;20237;-77
2021/09/09 03:32:28;;;;;;;17.62;10.27;;;16.20;99.90;;;;;;6692945;88;20685;-77
2021/09/09 03:42:29;;;;;;;13.98;10.10;;;16.20;99.90;;;;;;6684253;88;20213;-77
2021/09/09 03:52:30;;;;;;;14.50;10.05;;;16.20;99.90;;;;;;6690307;88;20191;-78
2021/09/09 04:02:30;;;;;;;16.25;10.10;;;16.20;99.90;;;;;;6685464;88;20171;-78
2021/09/09 04:12:31;;;;;;;15.02;10.10;;;16.30;99.90;;;;;;6687850;88;20269;-77
2021/09/09 04:22:31;;;;;;;16.48;10.48;;;16.40;99.90;;;;;;6674049;88;20185;-76
2021/09/09 04:32:32;;;;;;;16.67;10.20;;;16.90;99.90;;;;;;6683450;89;20331;-77
2021/09/09 04:42:33;;;;;;;17.40;10.50;;;16.60;99.90;;;;;;6682080;88;20704;-77
2021/09/09 04:52:33;;;;;;;17.27;10.60;;;16.50;99.90;;;;;;6675136;88;20202;-77
2021/09/09 05:02:34;;;;;;;15.15;9.95;;;16.60;99.90;;;;;;6688692;88;20556;-76
2021/09/09 05:12:35;;;;;;;19.52;10.50;;;16.50;99.90;;;;;;6688648;88;20201;-77
2021/09/09 05:22:35;;;;;;;17.12;10.30;;;16.60;99.90;;;;;;6691689;88;20171;-77
2021/09/09 05:32:36;;;;;;;17.80;10.13;;;16.50;99.90;;;;;;6692765;88;20742;-77
2021/09/09 05:42:37;;;;;;;17.98;10.48;;;16.50;99.90;;;;;;6689022;88;20223;-78
2021/09/09 05:52:38;;;;;;;15.65;9.93;;;16.90;99.90;;;;;;6688035;88;20191;-78
2021/09/09 06:02:46;;;;;;;17.60;9.43;;;17.00;99.90;;;;;;6710041;77;20180;-79
2021/09/09 06:12:46;;;;;;;13.52;9.13;;;17.40;99.90;;;;;;6738514;88;20217;-80
2021/09/09 06:22:47;;;;;;;17.33;9.55;;;17.60;99.90;;;;;;6738449;88;20277;-80
2021/09/09 06:32:48;;;;;;;14.55;8.50;;;18.00;99.90;;;;;;6733377;88;20240;-78
2021/09/09 06:42:48;;;;;;;13.55;7.75;;;18.50;99.90;;;;;;6733519;88;20372;-77
2021/09/09 06:52:49;;;;;;;11.57;7.20;;;19.00;99.90;;;;;;6740365;88;20195;-79
2021/09/09 07:02:50;;;;;;;12.55;7.03;;;19.60;99.90;;;;;;6719918;88;20638;-79
2021/09/09 07:12:51;;;;;;;18.27;7.50;;;20.00;99.90;;;;;;6721760;88;20217;-78
2021/09/09 07:22:51;;;;;;;10.80;6.78;;;20.40;99.90;;;;;;6726580;88;20715;-79
2021/09/09 07:32:52;;;;;;;12.37;6.75;;;20.70;99.90;;;;;;6734738;88;20193;-79
2021/09/09 07:42:52;;;;;;;10.77;6.53;;;21.30;99.90;;;;;;6751405;88;20217;-79
2021/09/09 07:52:53;;;;;;;14.93;6.87;;;21.50;99.90;;;;;;6747993;88;20201;-79
2021/09/09 08:02:54;;;;;;;9.60;6.62;;;22.10;99.90;;;;;;6743188;88;20217;-79
2021/09/09 08:12:54;;;;;;;10.82;6.37;;;22.40;99.90;;;;;;6742853;88;20580;-80
2021/09/09 08:22:55;;;;;;;12.00;5.85;;;22.90;99.90;;;;;;6742607;88;20807;-80
2021/09/09 08:32:55;;;;;;;9.65;5.93;;;23.30;99.90;;;;;;6741512;88;20180;-80
2021/09/09 08:42:56;;;;;;;11.60;5.93;;;24.10;99.90;;;;;;6740985;88;20307;-80
2021/09/09 08:52:59;;;;;;;10.73;5.95;;;24.30;99.90;;;;;;6743471;88;20218;-80
2021/09/09 09:02:59;;;;;;;8.50;6.10;;;24.60;99.90;;;;;;6744613;88;20301;-78
2021/09/09 09:13:00;;;;;;;9.03;5.70;;;25.40;99.90;;;;;;6746591;88;20384;-79
2021/09/09 09:23:11;;;;;;;9.82;5.87;;;25.60;99.90;;;;;;6743395;88;20493;-80
2021/09/09 09:33:42;;;;;;;9.57;6.18;;;26.20;99.90;;;;;;6752305;88;20290;-80
2021/09/09 09:43:51;;;;;;;10.68;5.65;;;27.20;99.90;;;;;;6749253;88;20208;-80
2021/09/09 09:54:07;;;;;;;8.15;6.03;;;27.70;99.80;;;;;;6732211;88;20210;-80
2021/09/09 10:04:13;;;;;;;7.85;5.85;;;29.70;97.20;;;;;;6736538;88;20578;-79
2021/09/09 10:14:26;;;;;;;8.57;5.65;;;29.80;96.70;;;;;;6739330;88;20681;-78
2021/09/09 10:24:31;;;;;;;12.57;5.93;;;29.80;96.20;;;;;;6741940;88;20193;-80
2021/09/09 10:34:32;;;;;;;11.07;6.10;;;28.50;98.00;;;;;;6736130;88;20200;-80
2021/09/09 10:44:34;;;;;;;12.82;6.28;;;28.90;98.00;;;;;;6741856;88;20315;-81
2021/09/09 10:55:11;;;;;;;10.93;6.37;;;29.20;98.20;;;;;;6742388;88;20223;-79
2021/09/09 11:05:14;;;;;;;11.23;6.50;;;29.20;97.40;;;;;;6717220;88;20224;-79
2021/09/09 11:15:14;;;;;;;14.85;6.00;;;29.00;97.90;;;;;;6741213;88;20254;-79
2021/09/09 11:25:19;;;;;;;11.63;6.07;;;29.90;97.10;;;;;;6741979;88;20609;-80
2021/09/09 11:35:19;;;;;;;10.63;6.10;;;30.00;97.10;;;;;;6740451;88;20173;-78
2021/09/09 11:45:20;;;;;;;9.73;5.18;;;30.40;97.10;;;;;;6739589;88;20210;-78
2021/09/09 12:05:27;;;;;;;7.62;5.45;;;30.50;97.00;;;;;;6709271;88;20182;-80
2021/09/09 12:15:28;;;;;;;9.55;5.68;;;31.60;95.60;;;;;;6706572;88;20223;-80
2021/09/09 12:25:36;;;;;;;7.75;5.70;;;31.80;95.80;;;;;;6708868;88;20222;-80
2021/09/09 12:35:36;;;;;;;9.20;5.45;;;31.60;96.20;;;;;;6704316;88;20260;-80
2021/09/09 12:45:41;;;;;;;6.83;5.43;;;31.50;96.30;;;;;;6693477;89;20359;-80
2021/09/09 12:55:41;;;;;;;10.20;5.47;;;31.50;96.30;;;;;;6692964;88;20195;-80
2021/09/09 13:05:42;;;;;;;7.37;5.45;;;32.60;95.40;;;;;;6696693;89;20195;-80
2021/09/09 13:15:43;;;;;;;9.27;5.70;;;31.50;95.80;;;;;;6692154;89;20182;-77
2021/09/09 13:25:44;;;;;;;9.07;5.70;;;31.00;96.20;;;;;;6693737;89;20951;-77
2021/09/09 13:35:46;;;;;;;7.93;5.30;;;31.00;96.50;;;;;;6695215;88;20213;-80
2021/09/09 13:45:46;;;;;;;8.45;6.03;;;30.70;96.70;;;;;;6697876;88;20211;-80
2021/09/09 13:55:50;;;;;;;10.68;5.05;;;30.00;98.00;;;;;;6693543;88;20213;-79
2021/09/09 14:05:50;;;;;;;9.07;5.07;;;29.60;99.00;;;;;;6697057;88;20265;-80
2021/09/09 14:15:51;;;;;;;8.15;5.70;;;29.50;99.40;;;;;;6696142;88;20710;-79
2021/09/09 14:25:51;;;;;;;8.00;5.18;;;29.90;98.50;;;;;;6695941;88;20199;-79
2021/09/09 14:35:52;;;;;;;8.00;5.25;;;28.90;99.90;;;;;;6697343;88;20218;-79
2021/09/09 14:45:53;;;;;;;13.43;7.22;;;28.60;99.90;;;;;;6692166;88;20289;-79
2021/09/09 14:55:53;;;;;;;12.20;7.97;;;25.90;99.90;;;;;;6695852;88;20878;-80
2021/09/09 15:05:54;;;;;;;7.97;4.18;;;24.50;99.90;;;;;;6692309;88;20523;-79
2021/09/09 15:15:54;;;;;;;6.25;4.43;;;24.70;99.90;;;;;;6693319;88;20206;-80
2021/09/09 15:25:55;;;;;;;6.90;4.50;;;25.60;99.90;;;;;;6692954;88;20222;-79
2021/09/09 15:35:56;;;;;;;9.63;4.22;;;26.90;99.90;;;;;;6693344;88;20717;-80
2021/09/09 15:45:56;;;;;;;6.87;4.53;;;27.30;99.90;;;;;;6689464;88;20205;-79
2021/09/09 15:55:57;;;;;;;10.18;4.50;;;27.60;99.90;;;;;;6692075;88;20348;-79
2021/09/09 16:05:57;;;;;;;6.70;4.37;;;26.70;99.90;;;;;;6706023;88;20174;-81
2021/09/09 16:15:58;;;;;;;10.68;4.65;;;26.40;99.90;;;;;;6708885;88;20314;-80
2021/09/09 16:25:58;;;;;;;6.78;4.53;;;25.80;99.90;;;;;;6711214;88;20229;-82
2021/09/09 16:35:59;;;;;;;9.50;4.80;;;25.50;99.90;;;;;;6711425;88;20211;-81
2021/09/09 16:46:00;;;;;;;9.95;4.80;;;25.00;99.90;;;;;;6718584;88;20190;-80
2021/09/09 16:56:01;;;;;;;13.75;8.95;;;25.00;99.90;;;;;;6722677;88;20284;-81
2021/09/09 17:06:02;;;;;;;10.20;5.70;;;24.70;99.90;;;;;;6720521;88;20289;-83
2021/09/09 17:16:03;;;;;;;9.88;5.95;;;24.50;99.90;;;;;;6726950;88;20194;-86
2021/09/09 17:26:04;;;;;;;10.55;5.68;;;24.40;99.90;;;;;;6717375;88;20225;-81
2021/09/09 17:36:05;;;;;;;9.73;5.77;;;24.40;99.90;;;;;;6720810;88;20237;-80
2021/09/09 17:46:05;;;;;;;7.70;5.57;;;24.20;99.90;;;;;;6714926;88;20517;-82
2021/09/09 17:56:06;;;;;;;11.27;5.57;;;23.90;99.90;;;;;;6714512;88;20618;-81
2021/09/09 18:06:06;;;;;;;8.80;5.12;;;23.60;99.90;;;;;;6707936;88;20202;-81
2021/09/09 18:16:07;;;;;;;9.00;5.10;;;23.70;99.90;;;;;;6708489;88;20185;-81
2021/09/09 18:26:08;;;;;;;9.57;5.57;;;23.50;99.90;;;;;;6705653;88;20211;-82
2021/09/09 18:36:08;;;;;;;8.07;4.78;;;23.30;99.90;;;;;;6708308;88;20519;-79
2021/09/09 18:46:10;;;;;;;6.37;4.20;;;23.10;99.90;;;;;;6698764;77;20195;-80
2021/09/09 18:56:11;;;;;;;7.00;4.20;;;23.20;99.90;;;;;;6686519;88;20550;-79
2021/09/09 19:06:12;;;;;;;12.02;7.93;;;23.10;99.90;;;;;;6689089;88;20195;-81
2021/09/09 19:16:13;;;;;;;7.72;5.05;;;22.80;99.90;;;;;;6702545;88;20712;-82
2021/09/09 19:26:13;;;;;;;6.87;4.65;;;22.40;99.90;;;;;;6706183;88;20220;-80
2021/09/09 19:36:14;;;;;;;9.00;5.07;;;22.50;99.90;;;;;;6707465;88;20256;-79
2021/09/09 19:46:17;;;;;;;7.28;5.37;;;22.70;99.90;;;;;;6691591;88;20220;-81
2021/09/09 19:56:19;;;;;;;9.00;5.10;;;22.60;99.90;;;;;;6692895;88;20709;-80
2021/09/09 20:06:19;;;;;;;7.43;4.53;;;22.50;99.90;;;;;;6693508;88;20204;-81
2021/09/09 20:16:20;;;;;;;7.43;5.00;;;22.40;99.90;;;;;;6692163;88;20190;-80
2021/09/09 20:26:22;;;;;;;8.10;4.72;;;22.40;99.90;;;;;;6691387;88;20197;-80
2021/09/09 20:36:23;;;;;;;5.78;4.03;;;22.30;99.90;;;;;;6693713;89;20182;-80
2021/09/09 20:46:23;;;;;;;6.45;3.90;;;22.50;99.90;;;;;;6696998;88;20207;-81
2021/09/09 20:56:24;;;;;;;5.75;4.00;;;22.60;99.90;;;;;;6695419;88;20166;-80
2021/09/09 21:06:25;;;;;;;6.55;4.15;;;22.60;99.90;;;;;;6691426;88;20198;-80
2021/09/09 21:16:25;;;;;;;6.93;4.40;;;22.70;99.90;;;;;;6696108;88;20194;-80
2021/09/09 21:26:26;;;;;;;7.97;4.32;;;22.60;99.90;;;;;;6695165;88;20206;-79
2021/09/09 21:36:26;;;;;;;7.30;4.37;;;22.60;99.90;;;;;;6699299;88;20211;-79
2021/09/09 21:46:27;;;;;;;9.70;4.53;;;22.50;99.90;;;;;;6695495;88;20278;-79
2021/09/09 21:56:27;;;;;;;5.70;3.75;;;22.50;99.90;;;;;;6698275;88;20174;-80
2021/09/09 22:06:28;;;;;;;5.32;4.03;;;22.40;99.90;;;;;;6698615;88;20204;-79
2021/09/09 22:16:28;;;;;;;10.57;4.10;;;22.30;99.90;;;;;;6692991;88;20333;-79
2021/09/09 22:26:29;;;;;;;6.75;3.97;;;22.20;99.90;;;;;;6696701;88;20249;-79
2021/09/09 22:36:30;;;;;;;8.50;4.00;;;22.20;99.90;;;;;;6692877;88;20199;-77
2021/09/09 22:46:30;;;;;;;6.40;4.10;;;22.10;99.90;;;;;;6689460;88;20843;-79
2021/09/09 22:56:31;;;;;;;7.70;3.87;;;22.00;99.90;;;;;;6701330;88;20250;-79
2021/09/09 23:06:32;;;;;;;5.73;3.93;;;21.80;99.90;;;;;;6693734;88;20198;-79
2021/09/09 23:16:32;;;;;;;7.80;4.07;;;21.70;99.90;;;;;;6703010;88;20997;-77
2021/09/09 23:26:33;;;;;;;6.70;4.28;;;21.60;99.90;;;;;;6690180;88;20594;-78
2021/09/09 23:36:35;;;;;;;6.20;4.25;;;21.50;99.90;;;;;;6690145;88;20233;-78
2021/09/09 23:46:35;;;;;;;8.52;4.40;;;21.50;99.90;;;;;;6686977;88;20185;-78
2021/09/09 23:56:36;;;;;;;6.20;4.50;;;21.40;99.90;;;;;;6690256;88;20194;-78
